Bellefontaine, Ohio
Current Conditions -  °F | °C
As of 12:10 AM on Tuesday 23 Dec 2014 (Local Time) from KEDJ Reporting Station
Broken Clouds Broken Clouds  
Wind Chill: 38°   Ceiling: 8000
Heat Index: 45°   Visibility: 10mi
Dew Point: 37°   Wind: 14mph
Humidity: 76%   Direction: 130°SE
Pressure: 29.75"   Gusts: NA
Location:  40.36°N, 83.76°W
Report Text: KEDJ 230510Z AUTO 13012KT 10SM SCT065 BKN080 07/03 A2975 RMK AO1
Loading
Personal Weather Stations






























Interactive Weather Map New forecast layout! Learn more

10-Day Weather Forecast

Advertisements
Track Severe Weather on mobile